createdAt,value
2022-11-18T00:01:37.932Z,85.36
2022-11-18T00:04:08.359Z,85.17
2022-11-18T00:06:38.862Z,85.21
2022-11-18T00:09:11.506Z,85.31
2022-11-18T00:11:59.966Z,85.35
2022-11-18T00:14:30.385Z,85.55
2022-11-18T00:17:06.202Z,85.31
2022-11-18T00:19:39.217Z,84.91
2022-11-18T00:22:12.763Z,85.25
2022-11-18T00:24:44.901Z,85.15
2022-11-18T00:27:15.659Z,85.26
2022-11-18T00:29:47.584Z,85.12
2022-11-18T00:32:19.628Z,84.96
2022-11-18T00:34:50.043Z,84.98
2022-11-18T00:37:20.782Z,84.55
2022-11-18T00:39:51.125Z,84.04
2022-11-18T00:42:39.423Z,83.86
2022-11-18T00:45:12.605Z,83.72
2022-11-18T00:47:43.071Z,83.66
2022-11-18T00:50:14.939Z,83.32
2022-11-18T00:52:45.474Z,83.27
2022-11-18T00:55:17.390Z,83.28
2022-11-18T00:57:48.342Z,83.01
2022-11-18T01:00:19.371Z,83.16
2022-11-18T01:02:49.701Z,83.18
2022-11-18T01:05:21.354Z,82.89
2022-11-18T01:07:51.744Z,82.90
2022-11-18T01:10:22.134Z,83.03
2022-11-18T01:13:10.510Z,83.09
2022-11-18T01:15:42.705Z,83.11
2022-11-18T01:18:13.160Z,82.84
2022-11-18T01:20:43.992Z,82.73
2022-11-18T01:23:15.842Z,83.02
2022-11-18T01:25:48.401Z,82.68
2022-11-18T01:28:23.952Z,82.72
2022-11-18T01:30:53.071Z,82.45
2022-11-18T01:33:23.457Z,82.54
2022-11-18T01:35:53.785Z,82.25
2022-11-18T01:38:24.105Z,82.46
2022-11-18T01:40:55.336Z,82.31
2022-11-18T01:43:25.773Z,82.21
2022-11-18T01:45:56.193Z,82.28
2022-11-18T01:48:31.207Z,82.14
2022-11-18T01:51:13.119Z,82.13
2022-11-18T01:53:49.175Z,82.36
2022-11-18T01:56:25.116Z,82.44
2022-11-18T01:59:01.571Z,82.21
2022-11-18T02:01:32.583Z,82.34
2022-11-18T02:04:02.977Z,82.25
2022-11-18T02:06:35.056Z,82.17
2022-11-18T02:09:06.023Z,82.30
2022-11-18T02:11:54.156Z,81.99
2022-11-18T02:14:30.772Z,82.14
2022-11-18T02:17:27.036Z,81.91
2022-11-18T02:20:20.183Z,81.95
2022-11-18T02:23:23.092Z,82.10
2022-11-18T02:26:14.883Z,82.11
2022-11-18T02:29:05.075Z,82.12
2022-11-18T02:31:47.558Z,81.98
2022-11-18T02:34:23.925Z,81.90
2022-11-18T02:37:00.362Z,81.83
2022-11-18T02:39:36.557Z,81.82
2022-11-18T02:42:10.114Z,81.85
2022-11-18T02:44:45.017Z,82.03
2022-11-18T02:47:19.058Z,82.22
2022-11-18T02:49:55.066Z,82.29
2022-11-18T02:52:28.279Z,82.30
2022-11-18T02:55:00.959Z,82.44
2022-11-18T02:57:33.958Z,82.30
2022-11-18T03:00:05.916Z,82.66
2022-11-18T03:02:51.260Z,82.39
2022-11-18T03:05:32.230Z,82.26
2022-11-18T03:08:05.694Z,82.42
2022-11-18T03:10:39.302Z,82.64
2022-11-18T03:13:21.987Z,82.88
2022-11-18T03:15:58.215Z,82.84
2022-11-18T03:18:52.581Z,83.32
2022-11-18T03:21:28.758Z,83.57
2022-11-18T03:24:02.286Z,83.59
2022-11-18T03:26:38.797Z,84.11
2022-11-18T03:29:18.029Z,84.28
2022-11-18T03:31:56.627Z,84.60
2022-11-18T03:34:30.060Z,84.53
2022-11-18T03:37:07.634Z,84.77
2022-11-18T03:39:38.335Z,85.17
2022-11-18T03:42:20.868Z,85.47
2022-11-18T03:44:57.388Z,85.59
2022-11-18T03:47:33.125Z,85.66
2022-11-18T03:50:07.036Z,85.51
2022-11-18T03:52:39.800Z,85.34
2022-11-18T03:55:23.335Z,85.09
2022-11-18T03:58:13.147Z,85.02
2022-11-18T04:00:47.385Z,84.91
2022-11-18T04:03:21.051Z,84.82
2022-11-18T04:05:54.738Z,84.72
2022-11-18T04:08:29.880Z,84.80
2022-11-18T04:11:36.583Z,84.70
2022-11-18T04:14:09.187Z,85.00
2022-11-18T04:16:44.590Z,85.34
2022-11-18T04:19:19.082Z,85.59
2022-11-18T04:21:50.537Z,85.93
2022-11-18T04:24:22.423Z,86.37
2022-11-18T04:26:53.098Z,86.40
2022-11-18T04:29:25.069Z,86.63
2022-11-18T04:31:55.528Z,86.72
2022-11-18T04:34:26.218Z,86.91
2022-11-18T04:36:56.798Z,87.04
2022-11-18T04:39:27.389Z,87.00
2022-11-18T04:41:59.164Z,87.00
2022-11-18T04:44:32.995Z,87.00
2022-11-18T04:47:06.346Z,87.17
2022-11-18T04:49:38.987Z,87.23
2022-11-18T04:52:12.441Z,87.32
2022-11-18T04:54:44.097Z,87.02
2022-11-18T04:57:15.238Z,86.83
2022-11-18T04:59:45.791Z,86.89
2022-11-18T05:02:17.836Z,86.93
2022-11-18T05:04:48.267Z,87.09
2022-11-18T05:07:18.966Z,86.99
2022-11-18T05:09:49.928Z,86.75
2022-11-18T05:12:38.393Z,86.68
2022-11-18T05:15:10.938Z,86.73
2022-11-18T05:17:41.699Z,86.47
2022-11-18T05:20:15.553Z,86.23
2022-11-18T05:22:47.614Z,86.22
2022-11-18T05:25:18.514Z,86.23
2022-11-18T05:27:57.205Z,86.26
2022-11-18T05:30:27.576Z,85.59
2022-11-18T05:33:02.126Z,85.62
2022-11-18T05:35:32.480Z,85.46
2022-11-18T05:38:08.451Z,85.35
2022-11-18T05:40:40.149Z,85.09
2022-11-18T05:43:12.072Z,84.74
2022-11-18T05:45:44.530Z,84.74
2022-11-18T05:48:15.221Z,84.62
2022-11-18T05:50:50.451Z,84.72
2022-11-18T05:53:25.149Z,84.22
2022-11-18T05:56:04.751Z,83.98
2022-11-18T05:58:35.615Z,84.00
2022-11-18T06:01:10.705Z,84.07
2022-11-18T06:03:42.685Z,83.88
2022-11-18T06:06:16.593Z,83.62
2022-11-18T06:09:01.694Z,83.34
2022-11-18T06:11:35.333Z,83.09
2022-11-18T06:14:11.054Z,82.97
2022-11-18T06:16:46.325Z,82.83
2022-11-18T06:19:24.841Z,82.12
2022-11-18T06:21:52.616Z,82.58
2022-11-18T06:24:28.530Z,81.76
2022-11-18T06:27:02.161Z,81.29
2022-11-18T06:29:33.008Z,81.34
2022-11-18T06:32:04.282Z,80.66
2022-11-18T06:34:41.209Z,80.72
2022-11-18T06:37:18.007Z,81.07
2022-11-18T06:39:48.612Z,81.06
2022-11-18T06:42:37.471Z,80.69
2022-11-18T06:45:09.108Z,80.83
2022-11-18T06:47:40.980Z,80.63
2022-11-18T06:50:13.375Z,79.78
2022-11-18T06:52:44.114Z,79.97
2022-11-18T06:55:15.091Z,80.16
2022-11-18T06:57:47.055Z,79.69
2022-11-18T07:00:18.969Z,79.78
2022-11-18T07:02:49.511Z,79.62
2022-11-18T07:05:21.670Z,79.64
2022-11-18T07:07:52.395Z,79.35
2022-11-18T07:10:22.994Z,79.47
2022-11-18T07:12:53.952Z,79.11
2022-11-18T07:15:24.544Z,78.92
2022-11-18T07:17:55.911Z,78.59
2022-11-18T07:20:26.544Z,78.55
2022-11-18T07:22:58.023Z,78.36
2022-11-18T07:25:28.627Z,78.32
2022-11-18T07:28:00.229Z,78.63
2022-11-18T07:30:32.202Z,78.78
2022-11-18T07:33:04.243Z,78.80
2022-11-18T07:35:34.801Z,78.71
2022-11-18T07:38:07.423Z,78.43
2022-11-18T07:40:37.815Z,77.43
2022-11-18T07:43:08.928Z,77.71
2022-11-18T07:45:40.583Z,78.06
2022-11-18T07:48:12.797Z,77.60
2022-11-18T07:50:47.265Z,77.21
2022-11-18T07:53:18.276Z,77.54
2022-11-18T07:55:48.701Z,77.42
2022-11-18T07:58:21.273Z,76.77
2022-11-18T08:00:52.118Z,77.06
2022-11-18T08:03:27.872Z,77.13
2022-11-18T08:06:03.140Z,76.55
2022-11-18T08:08:36.435Z,76.92
2022-11-18T08:11:09.933Z,76.53
2022-11-18T08:13:42.851Z,76.76
2022-11-18T08:16:20.897Z,76.66
2022-11-18T08:18:53.449Z,76.87
2022-11-18T08:21:25.305Z,76.79
2022-11-18T08:23:57.798Z,76.42
2022-11-18T08:26:30.232Z,76.61
2022-11-18T08:29:02.932Z,76.35
2022-11-18T08:31:34.321Z,76.43
2022-11-18T08:34:08.016Z,76.53
2022-11-18T08:36:39.633Z,76.50
2022-11-18T08:39:12.220Z,76.06
2022-11-18T08:41:46.299Z,76.10
2022-11-18T08:44:19.733Z,76.28
2022-11-18T08:46:50.732Z,75.99
2022-11-18T08:49:25.112Z,76.48
2022-11-18T08:51:56.397Z,76.34
2022-11-18T08:54:28.785Z,76.44
2022-11-18T08:56:59.524Z,77.08
2022-11-18T08:59:30.073Z,76.71
2022-11-18T09:02:08.079Z,76.70
2022-11-18T09:04:38.789Z,76.69
2022-11-18T09:07:12.376Z,76.76
2022-11-18T09:09:52.091Z,76.42
2022-11-18T09:12:23.947Z,76.53
2022-11-18T09:15:12.889Z,77.05
2022-11-18T09:17:26.505Z,77.03
2022-11-18T09:19:57.016Z,77.14
2022-11-18T09:22:28.991Z,76.98
2022-11-18T09:24:59.555Z,76.73
2022-11-18T09:27:30.697Z,76.52
2022-11-18T09:30:02.217Z,76.50
2022-11-18T09:32:34.778Z,76.63
2022-11-18T09:35:05.859Z,76.87
2022-11-18T09:37:36.624Z,76.78
2022-11-18T09:40:10.362Z,77.00
2022-11-18T09:43:01.014Z,76.68
2022-11-18T09:45:37.513Z,76.27
2022-11-18T09:48:16.905Z,76.40
2022-11-18T09:50:50.049Z,76.64
2022-11-18T09:53:25.353Z,76.66
2022-11-18T09:55:57.693Z,77.13
2022-11-18T09:58:36.484Z,77.24
2022-11-18T10:01:15.855Z,76.41
2022-11-18T10:03:47.746Z,76.10
2022-11-18T10:06:34.227Z,76.06
2022-11-18T10:09:25.997Z,75.53
2022-11-18T10:12:29.266Z,75.60
2022-11-18T10:15:18.935Z,75.23
2022-11-18T10:18:09.383Z,74.55
2022-11-18T10:20:46.675Z,74.77
2022-11-18T10:23:23.064Z,74.23
2022-11-18T10:25:55.870Z,74.65
2022-11-18T10:28:32.019Z,74.81
2022-11-18T10:31:11.397Z,75.01
2022-11-18T10:33:43.623Z,74.80
2022-11-18T10:36:28.629Z,74.73
2022-11-18T10:39:16.676Z,74.77
2022-11-18T10:41:50.653Z,74.53
2022-11-18T10:44:33.148Z,74.61
2022-11-18T10:47:26.820Z,74.20
2022-11-18T10:50:01.035Z,74.43
2022-11-18T10:52:32.804Z,74.11
2022-11-18T10:55:11.072Z,73.98
2022-11-18T10:57:43.962Z,74.48
2022-11-18T11:00:36.137Z,74.41
2022-11-18T11:03:27.990Z,74.45
2022-11-18T11:06:32.080Z,74.43
2022-11-18T11:09:06.768Z,74.49
2022-11-18T11:11:41.991Z,74.54
2022-11-18T11:14:26.566Z,74.61
2022-11-18T11:17:00.524Z,74.29
2022-11-18T11:19:35.191Z,74.48
2022-11-18T11:22:10.188Z,75.04
2022-11-18T11:24:43.979Z,75.07
2022-11-18T11:30:20.325Z,75.15
2022-11-18T11:33:10.159Z,74.74
2022-11-18T11:36:02.755Z,74.37
2022-11-18T11:38:42.693Z,74.28
2022-11-18T11:41:25.107Z,74.32
2022-11-18T11:44:15.251Z,74.06
2022-11-18T11:47:24.017Z,74.49
2022-11-18T11:50:04.255Z,74.26
2022-11-18T11:52:37.872Z,74.09
2022-11-18T11:55:22.584Z,74.39
2022-11-18T11:58:12.346Z,73.64
2022-11-18T12:00:47.095Z,73.61
2022-11-18T12:03:35.636Z,73.46
2022-11-18T12:06:08.076Z,73.54
2022-11-18T12:08:41.106Z,73.22
2022-11-18T12:11:21.328Z,72.90
2022-11-18T12:13:57.861Z,72.46
2022-11-18T12:16:43.380Z,71.98
2022-11-18T12:19:22.530Z,71.49
2022-11-18T12:22:01.069Z,70.98
2022-11-18T12:24:37.717Z,71.06
2022-11-18T12:27:22.090Z,71.00
2022-11-18T12:29:55.958Z,70.05
2022-11-18T12:32:48.963Z,69.66
2022-11-18T12:35:28.460Z,70.01
2022-11-18T12:38:03.464Z,69.55
2022-11-18T12:40:52.813Z,69.60
2022-11-18T12:43:47.789Z,70.15
2022-11-18T12:46:45.705Z,70.52
2022-11-18T12:49:28.116Z,71.26
2022-11-18T12:52:01.063Z,71.12
2022-11-18T12:54:37.193Z,71.39
2022-11-18T12:57:22.400Z,71.60
2022-11-18T12:59:52.977Z,71.61
2022-11-18T13:02:27.413Z,71.20
2022-11-18T13:05:08.420Z,71.67
2022-11-18T13:08:05.397Z,71.00
2022-11-18T13:10:39.038Z,71.15
2022-11-18T13:13:21.887Z,70.69
2022-11-18T13:16:11.428Z,70.88
2022-11-18T13:18:54.864Z,70.81
2022-11-18T13:21:50.209Z,70.62
2022-11-18T13:24:23.261Z,70.96
2022-11-18T13:26:59.004Z,70.56
2022-11-18T13:29:52.676Z,70.55
2022-11-18T13:32:27.892Z,71.08
2022-11-18T13:35:01.595Z,71.25
2022-11-18T13:37:34.911Z,71.31
2022-11-18T13:40:11.259Z,71.29
2022-11-18T13:42:45.293Z,71.48
2022-11-18T13:45:16.382Z,71.39
2022-11-18T13:47:55.670Z,71.67
2022-11-18T13:50:38.411Z,72.01
2022-11-18T13:53:27.374Z,71.33
2022-11-18T13:56:03.895Z,70.95
2022-11-18T13:59:15.734Z,70.83
2022-11-18T14:01:22.644Z,70.99
2022-11-18T14:03:59.099Z,70.48
2022-11-18T14:06:34.817Z,70.53
2022-11-18T14:09:09.410Z,70.21
2022-11-18T14:11:42.711Z,70.54
2022-11-18T14:14:16.936Z,70.68
2022-11-18T14:16:49.974Z,70.19
2022-11-18T14:19:32.725Z,70.55
2022-11-18T14:22:12.731Z,70.70
2022-11-18T14:24:41.279Z,70.52
2022-11-18T14:27:36.380Z,69.35
2022-11-18T14:30:34.884Z,68.48
2022-11-18T14:33:08.788Z,68.50
2022-11-18T14:35:46.088Z,68.34
2022-11-18T14:41:07.693Z,68.40
2022-11-18T14:43:38.400Z,68.68
2022-11-18T14:46:17.784Z,68.47
2022-11-18T14:48:48.574Z,68.80
2022-11-18T14:51:19.397Z,69.05
2022-11-18T14:53:49.875Z,68.77
2022-11-18T14:56:27.692Z,68.61
2022-11-18T14:59:02.241Z,68.94
2022-11-18T15:01:33.790Z,69.24
2022-11-18T15:04:07.008Z,69.55
2022-11-18T15:06:38.657Z,69.22
2022-11-18T15:09:10.915Z,69.48
2022-11-18T15:11:41.698Z,69.60
2022-11-18T15:14:13.317Z,69.79
2022-11-18T15:16:45.683Z,69.76
2022-11-18T15:19:17.595Z,69.91
2022-11-18T15:21:51.081Z,69.96
2022-11-18T15:24:21.610Z,70.44
2022-11-18T15:26:53.462Z,70.81
2022-11-18T15:29:27.835Z,71.54
2022-11-18T15:31:58.356Z,70.58
2022-11-18T15:34:29.051Z,70.43
2022-11-18T15:36:59.516Z,70.43
2022-11-18T15:39:29.947Z,70.70
2022-11-18T15:42:00.446Z,70.65
2022-11-18T15:44:30.784Z,70.70
2022-11-18T15:47:01.680Z,70.87
2022-11-18T15:49:35.089Z,70.89
2022-11-18T15:52:08.727Z,71.01
2022-11-18T15:54:41.862Z,71.32
2022-11-18T15:57:12.535Z,71.11
2022-11-18T15:59:43.136Z,71.11
2022-11-18T16:02:14.570Z,71.06
2022-11-18T16:04:45.067Z,71.46
2022-11-18T16:07:16.894Z,71.58
2022-11-18T16:10:05.657Z,71.92
2022-11-18T16:12:51.297Z,71.89
2022-11-18T16:15:40.981Z,72.00
2022-11-18T16:18:12.920Z,72.33
2022-11-18T16:20:43.745Z,72.73
2022-11-18T16:23:15.479Z,72.75
2022-11-18T16:25:46.717Z,72.43
2022-11-18T16:28:20.018Z,72.63
2022-11-18T16:31:10.827Z,72.62
2022-11-18T16:33:42.473Z,72.35
2022-11-18T16:36:14.553Z,73.42
2022-11-18T16:38:45.038Z,72.78
2022-11-18T16:41:32.023Z,72.19
2022-11-18T16:44:06.970Z,73.19
2022-11-18T16:46:42.758Z,73.64
2022-11-18T16:49:14.994Z,74.15
2022-11-18T16:51:47.546Z,72.84
2022-11-18T16:54:25.368Z,73.22
2022-11-18T16:56:58.824Z,73.40
2022-11-18T16:59:31.315Z,73.25
2022-11-18T17:02:02.210Z,73.18
2022-11-18T17:04:37.197Z,73.11
2022-11-18T17:07:07.709Z,73.34
2022-11-18T17:09:38.479Z,73.25
2022-11-18T17:12:10.412Z,73.62
2022-11-18T17:14:42.479Z,73.43
2022-11-18T17:17:14.403Z,73.20
2022-11-18T17:19:44.765Z,73.78
2022-11-18T17:22:17.615Z,73.95
2022-11-18T17:24:48.112Z,75.02
2022-11-18T17:27:18.812Z,74.09
2022-11-18T17:29:52.760Z,74.26
2022-11-18T17:32:25.633Z,74.68
2022-11-18T17:34:56.465Z,74.23
2022-11-18T17:37:28.524Z,74.78
2022-11-18T17:40:02.036Z,75.83
2022-11-18T17:42:34.028Z,75.64
2022-11-18T17:45:06.960Z,76.92
2022-11-18T17:47:37.454Z,77.33
2022-11-18T17:50:09.581Z,77.01
2022-11-18T17:52:41.914Z,77.00
2022-11-18T17:55:12.414Z,76.65
2022-11-18T17:57:43.720Z,76.84
2022-11-18T18:00:19.617Z,77.68
2022-11-18T18:02:51.872Z,77.93
2022-11-18T18:05:22.474Z,75.38
2022-11-18T18:07:54.644Z,74.80
2022-11-18T18:10:26.421Z,74.59
2022-11-18T18:13:15.916Z,74.38
2022-11-18T18:15:46.620Z,74.00
2022-11-18T18:18:17.162Z,74.40
2022-11-18T18:20:47.749Z,74.51
2022-11-18T18:23:18.097Z,74.62
2022-11-18T18:25:48.569Z,74.71
2022-11-18T18:28:19.202Z,74.75
2022-11-18T18:30:52.758Z,74.27
2022-11-18T18:33:24.972Z,74.23
2022-11-18T18:35:57.823Z,74.43
2022-11-18T18:38:32.132Z,74.53
2022-11-18T18:41:08.949Z,74.69
2022-11-18T18:43:40.445Z,74.95
2022-11-18T18:46:29.869Z,74.89
2022-11-18T18:49:13.313Z,75.41
2022-11-18T18:51:46.397Z,75.91
2022-11-18T18:54:19.958Z,76.88
2022-11-18T18:56:52.416Z,78.00
2022-11-18T18:59:23.619Z,78.33
2022-11-18T19:01:54.064Z,78.96
2022-11-18T19:04:24.748Z,78.61
2022-11-18T19:07:00.084Z,77.86
2022-11-18T19:09:29.692Z,78.25
2022-11-18T19:12:22.593Z,77.88
2022-11-18T19:14:54.443Z,78.47
2022-11-18T19:17:24.970Z,79.01
2022-11-18T19:20:15.549Z,79.35
2022-11-18T19:22:47.762Z,79.46
2022-11-18T19:25:21.492Z,79.15
2022-11-18T19:27:56.491Z,78.78
2022-11-18T19:30:27.737Z,79.09
2022-11-18T19:32:59.476Z,79.05
2022-11-18T19:35:31.783Z,79.45
2022-11-18T19:38:01.918Z,79.64
2022-11-18T19:40:32.547Z,79.58
2022-11-18T19:43:04.982Z,79.80
2022-11-18T19:45:37.082Z,80.00
2022-11-18T19:48:12.860Z,80.07
2022-11-18T19:50:47.850Z,79.96
2022-11-18T19:53:34.903Z,79.96
2022-11-18T19:56:10.429Z,79.41
2022-11-18T19:58:45.534Z,79.18
2022-11-18T20:01:20.552Z,79.71
2022-11-18T20:03:53.467Z,80.01
2022-11-18T20:06:24.915Z,80.29
2022-11-18T20:09:00.284Z,80.27
2022-11-18T20:11:33.878Z,79.54
2022-11-18T20:14:08.704Z,78.59
2022-11-18T20:16:44.702Z,78.63
2022-11-18T20:19:19.184Z,78.71
2022-11-18T20:21:54.327Z,79.22
2022-11-18T20:24:25.288Z,78.38
2022-11-18T20:26:57.760Z,79.30
2022-11-18T20:29:30.440Z,79.04
2022-11-18T20:32:03.055Z,78.33
2022-11-18T20:34:39.605Z,79.00
2022-11-18T20:37:09.901Z,79.05
2022-11-18T20:39:40.764Z,79.54
2022-11-18T20:42:28.972Z,79.82
2022-11-18T20:45:00.050Z,80.10
2022-11-18T20:47:30.569Z,80.10
2022-11-18T20:50:01.176Z,79.65
2022-11-18T20:52:35.009Z,79.54
2022-11-18T20:55:11.183Z,79.06
2022-11-18T20:57:39.907Z,79.13
2022-11-18T21:00:11.920Z,79.31
2022-11-18T21:02:43.862Z,79.92
2022-11-18T21:05:15.845Z,79.66
2022-11-18T21:07:50.321Z,79.48
2022-11-18T21:10:23.133Z,78.67
2022-11-18T21:13:11.588Z,78.54
2022-11-18T21:15:44.238Z,79.11
2022-11-18T21:18:17.764Z,78.88
2022-11-18T21:21:06.862Z,79.34
2022-11-18T21:23:37.292Z,79.68
2022-11-18T21:26:13.255Z,79.59
2022-11-18T21:28:42.431Z,79.20
2022-11-18T21:31:16.312Z,79.62
2022-11-18T21:33:47.937Z,80.05
2022-11-18T21:36:21.431Z,79.29
2022-11-18T21:38:52.538Z,78.95
2022-11-18T21:41:25.595Z,79.30
2022-11-18T21:44:05.627Z,79.82
2022-11-18T21:46:32.501Z,79.34
2022-11-18T21:49:05.621Z,79.91
2022-11-18T21:51:38.452Z,79.85
2022-11-18T21:54:12.050Z,80.49
2022-11-18T21:56:42.560Z,80.62
2022-11-18T21:59:16.608Z,80.54
2022-11-18T22:01:48.672Z,80.85
2022-11-18T22:04:36.959Z,81.03
2022-11-18T22:07:08.613Z,80.90
2022-11-18T22:09:39.148Z,80.90
2022-11-18T22:12:10.841Z,81.26
2022-11-18T22:14:43.833Z,81.66
2022-11-18T22:17:14.289Z,81.71
2022-11-18T22:19:45.300Z,82.00
2022-11-18T22:22:20.304Z,81.92
2022-11-18T22:24:52.745Z,81.05
2022-11-18T22:27:29.460Z,80.86
2022-11-18T22:29:58.303Z,80.76
2022-11-18T22:32:29.809Z,81.24
2022-11-18T22:35:02.827Z,81.29
2022-11-18T22:37:35.613Z,81.33
2022-11-18T22:40:07.276Z,81.16
2022-11-18T22:42:52.574Z,81.65
2022-11-18T22:45:26.692Z,81.06
2022-11-18T22:47:57.706Z,81.39
2022-11-18T22:50:30.407Z,81.31
2022-11-18T22:53:00.964Z,81.40
2022-11-18T22:55:34.674Z,81.56
2022-11-18T22:58:06.767Z,81.57
2022-11-18T23:00:40.034Z,81.44
2022-11-18T23:03:11.396Z,81.34
2022-11-18T23:05:44.433Z,81.59
2022-11-18T23:08:17.279Z,81.69
2022-11-18T23:10:50.648Z,81.79
2022-11-18T23:13:39.346Z,81.57
2022-11-18T23:16:11.509Z,81.85
2022-11-18T23:18:44.871Z,81.94
2022-11-18T23:21:16.838Z,81.91
2022-11-18T23:23:48.623Z,82.01
2022-11-18T23:26:19.259Z,81.88
2022-11-18T23:28:49.917Z,81.72
2022-11-18T23:31:26.718Z,81.88
2022-11-18T23:33:59.548Z,81.80
2022-11-18T23:36:30.008Z,82.19
2022-11-18T23:39:01.974Z,82.32
2022-11-18T23:41:34.177Z,82.19
2022-11-18T23:44:07.662Z,82.42
2022-11-18T23:46:39.212Z,82.56
2022-11-18T23:49:10.658Z,82.96
2022-11-18T23:51:41.445Z,83.12
2022-11-18T23:54:13.379Z,83.10
2022-11-18T23:56:43.761Z,83.09
2022-11-18T23:59:14.331Z,83.46
